Time;durP1;ratioP1;P1;durP2;ratioP2;P2;SDS_P1;SDS_P2;PMS_P1;PMS_P2;Temp;Humidity;BMP_temperature;BMP_pressure;BME280_temperature;BME280_humidity;BME280_pressure;Samples;Min_cycle;Max_cycle;Signal;HPM_P1;HPM_P2
2022/11/23 00:01:14;;;;;;;11.50;5.63;;;4.90;99.90;;;;;;5137963;27;20043;-63
2022/11/23 00:03:41;;;;;;;13.60;5.80;;;4.90;99.90;;;;;;5138141;27;20389;-63
2022/11/23 00:06:08;;;;;;;10.20;5.40;;;4.80;99.90;;;;;;5137063;27;20042;-65
2022/11/23 00:08:34;;;;;;;12.82;6.30;;;4.80;99.90;;;;;;5138164;27;20062;-63
2022/11/23 00:11:01;;;;;;;11.93;5.70;;;4.80;99.90;;;;;;5133460;27;20050;-64
2022/11/23 00:13:28;;;;;;;14.80;6.10;;;4.70;99.90;;;;;;5127240;27;20035;-62
2022/11/23 00:15:55;;;;;;;7.70;5.78;;;4.70;99.90;;;;;;5131381;27;20031;-63
2022/11/23 00:18:21;;;;;;;18.08;8.45;;;4.70;99.90;;;;;;5137692;27;20070;-63
2022/11/23 00:20:48;;;;;;;20.20;10.43;;;4.60;99.90;;;;;;5136995;27;20435;-62
2022/11/23 00:23:15;;;;;;;45.35;20.52;;;4.60;99.90;;;;;;5138089;27;20081;-63
2022/11/23 00:25:41;;;;;;;37.35;15.93;;;4.50;99.90;;;;;;5116601;27;20043;-63
2022/11/23 00:28:08;;;;;;;29.83;12.70;;;4.50;99.90;;;;;;5133940;27;20043;-62
2022/11/23 00:30:36;;;;;;;26.30;11.98;;;4.50;99.90;;;;;;5133425;27;20100;-67
2022/11/23 00:33:03;;;;;;;17.02;8.85;;;4.40;99.90;;;;;;5135780;27;20462;-62
2022/11/23 00:35:30;;;;;;;16.40;8.93;;;4.40;99.90;;;;;;5118656;27;20035;-64
2022/11/23 00:37:59;;;;;;;13.57;7.68;;;4.40;99.90;;;;;;5117672;27;20032;-66
2022/11/23 00:40:26;;;;;;;13.90;6.90;;;4.40;99.90;;;;;;5137364;27;20035;-64
2022/11/23 00:42:53;;;;;;;11.35;6.93;;;4.40;99.90;;;;;;5102692;27;20100;-62
2022/11/23 00:45:19;;;;;;;8.57;6.10;;;4.40;99.90;;;;;;5118840;27;20446;-61
2022/11/23 00:47:46;;;;;;;14.82;7.55;;;4.50;99.90;;;;;;5136684;27;20108;-61
2022/11/23 00:50:13;;;;;;;14.07;7.30;;;4.50;99.90;;;;;;5111023;28;20044;-63
2022/11/23 00:52:41;;;;;;;12.57;7.50;;;4.50;99.90;;;;;;5128258;27;20470;-63
2022/11/23 00:55:07;;;;;;;19.40;9.20;;;4.60;99.90;;;;;;5136587;27;20055;-64
2022/11/23 00:57:34;;;;;;;68.07;27.63;;;4.60;99.90;;;;;;5135552;27;20035;-61
2022/11/23 01:00:01;;;;;;;49.55;22.33;;;4.60;99.90;;;;;;5117753;27;20108;-64
2022/11/23 01:02:28;;;;;;;32.22;14.35;;;4.60;99.90;;;;;;5118541;27;20047;-62
2022/11/23 01:04:55;;;;;;;27.73;11.68;;;4.60;99.90;;;;;;5137362;27;20122;-63
2022/11/23 01:07:21;;;;;;;18.58;9.20;;;4.60;99.90;;;;;;5117521;27;20399;-63
2022/11/23 01:09:48;;;;;;;14.90;7.65;;;4.60;99.90;;;;;;5124891;27;20030;-63
2022/11/23 01:12:15;;;;;;;10.80;6.50;;;4.70;99.90;;;;;;5137240;27;20039;-64
2022/11/23 01:14:46;;;;;;;11.27;6.38;;;4.70;99.90;;;;;;5137048;27;20114;-65
2022/11/23 01:17:12;;;;;;;15.80;6.13;;;4.80;99.90;;;;;;5117989;27;20100;-61
2022/11/23 01:19:39;;;;;;;10.77;5.72;;;4.80;99.90;;;;;;5135809;27;20443;-62
2022/11/23 01:22:06;;;;;;;8.73;5.03;;;4.80;99.90;;;;;;5137644;27;20383;-63
2022/11/23 01:24:33;;;;;;;9.07;5.28;;;4.80;99.90;;;;;;5136361;27;20043;-64
2022/11/23 01:26:59;;;;;;;11.25;4.97;;;4.80;99.90;;;;;;5137255;27;20039;-63
2022/11/23 01:29:27;;;;;;;8.65;4.80;;;4.90;99.90;;;;;;5135536;27;20386;-65
2022/11/23 01:31:58;;;;;;;9.48;4.40;;;4.90;99.90;;;;;;5117448;27;20422;-64
2022/11/23 01:34:25;;;;;;;9.07;3.80;;;4.90;99.90;;;;;;5116863;27;20065;-63
2022/11/23 01:36:52;;;;;;;8.45;5.07;;;4.90;99.90;;;;;;5136371;27;20389;-62
2022/11/23 01:39:18;;;;;;;9.98;3.92;;;5.00;99.90;;;;;;5099423;27;20039;-62
2022/11/23 01:41:45;;;;;;;7.43;3.88;;;5.00;99.90;;;;;;5100636;27;20902;-64
2022/11/23 01:44:12;;;;;;;7.53;4.03;;;5.00;99.90;;;;;;5134657;27;20043;-63
2022/11/23 01:46:40;;;;;;;7.60;4.07;;;5.00;99.90;;;;;;5134274;27;20084;-63
2022/11/23 01:49:07;;;;;;;7.97;4.15;;;5.00;99.90;;;;;;5135736;27;20051;-62
2022/11/23 01:51:34;;;;;;;7.40;3.35;;;5.10;99.90;;;;;;5116247;27;20424;-62
2022/11/23 01:54:01;;;;;;;11.07;3.28;;;5.10;99.90;;;;;;5136675;27;20049;-62
2022/11/23 01:56:27;;;;;;;5.97;3.03;;;5.20;99.90;;;;;;5135213;27;20035;-63
2022/11/23 01:58:54;;;;;;;8.63;3.05;;;5.20;99.90;;;;;;5116383;27;20075;-64
2022/11/23 02:01:21;;;;;;;6.32;2.92;;;5.30;99.90;;;;;;5134208;27;20091;-62
2022/11/23 02:03:48;;;;;;;6.80;2.58;;;5.30;99.90;;;;;;5118246;27;20050;-62
2022/11/23 02:06:14;;;;;;;9.27;2.50;;;5.40;99.90;;;;;;5118094;27;20067;-63
2022/11/23 02:08:41;;;;;;;8.60;2.83;;;5.50;99.90;;;;;;5136265;27;20055;-62
2022/11/23 02:11:08;;;;;;;5.75;2.38;;;5.50;99.90;;;;;;5100036;27;20069;-63
2022/11/23 02:13:35;;;;;;;6.65;2.22;;;5.60;99.90;;;;;;5133783;27;20050;-62
2022/11/23 02:16:01;;;;;;;4.70;1.88;;;5.60;99.90;;;;;;5135022;27;20053;-63
2022/11/23 02:18:28;;;;;;;8.90;2.30;;;5.70;99.90;;;;;;5116749;27;20063;-63
2022/11/23 02:20:55;;;;;;;4.53;2.20;;;5.60;99.90;;;;;;5117076;27;20130;-62
2022/11/23 02:23:21;;;;;;;9.63;2.38;;;5.60;99.90;;;;;;5117264;27;20039;-63
2022/11/23 02:25:48;;;;;;;7.70;2.50;;;5.60;99.90;;;;;;5117454;27;20071;-63
2022/11/23 02:28:15;;;;;;;5.78;2.42;;;5.60;99.90;;;;;;5117596;27;20088;-62
2022/11/23 02:30:42;;;;;;;6.30;2.50;;;5.70;99.90;;;;;;5116718;27;20043;-61
2022/11/23 02:33:09;;;;;;;6.75;2.20;;;5.60;99.90;;;;;;5135601;27;20386;-61
2022/11/23 02:35:35;;;;;;;8.90;1.95;;;5.60;99.90;;;;;;5136181;27;20382;-63
2022/11/23 02:38:03;;;;;;;6.22;2.53;;;5.60;99.90;;;;;;5116908;27;20039;-62
2022/11/23 02:40:30;;;;;;;4.63;2.10;;;5.60;99.90;;;;;;5117499;27;20134;-62
2022/11/23 02:42:57;;;;;;;5.68;2.25;;;5.60;99.90;;;;;;5116859;27;20055;-61
2022/11/23 02:45:27;;;;;;;6.53;2.35;;;5.50;99.90;;;;;;5116879;27;20122;-62
2022/11/23 02:47:54;;;;;;;10.50;2.35;;;5.50;99.90;;;;;;5133451;27;20043;-63
2022/11/23 02:50:20;;;;;;;5.60;2.00;;;5.50;99.90;;;;;;5115367;27;20067;-64
2022/11/23 02:52:47;;;;;;;5.80;2.00;;;5.40;99.90;;;;;;5115983;27;20051;-63
2022/11/23 02:55:14;;;;;;;7.90;2.08;;;5.50;99.90;;;;;;5115005;27;20042;-64
2022/11/23 02:57:41;;;;;;;7.07;1.80;;;5.40;99.90;;;;;;5133949;27;20031;-63
2022/11/23 03:00:09;;;;;;;7.03;2.08;;;5.40;99.90;;;;;;5115098;27;20547;-62
2022/11/23 03:02:36;;;;;;;4.90;2.20;;;5.40;99.90;;;;;;5110633;27;20090;-62
2022/11/23 03:05:03;;;;;;;6.53;1.90;;;5.40;99.90;;;;;;5134944;27;20054;-62
2022/11/23 03:07:29;;;;;;;5.75;2.38;;;5.40;99.90;;;;;;5135178;27;20104;-63
2022/11/23 03:09:57;;;;;;;7.80;2.00;;;5.40;99.90;;;;;;5116264;27;20147;-63
2022/11/23 03:12:24;;;;;;;8.60;2.00;;;5.30;99.90;;;;;;5115960;28;20474;-62
2022/11/23 03:14:51;;;;;;;7.63;2.70;;;5.30;99.90;;;;;;5115446;27;20084;-63
2022/11/23 03:17:19;;;;;;;7.85;2.10;;;5.30;99.90;;;;;;5115304;28;20051;-62
2022/11/23 03:19:46;;;;;;;5.55;2.30;;;5.30;99.90;;;;;;5134864;27;20027;-61
2022/11/23 03:22:12;;;;;;;5.00;2.10;;;5.30;99.90;;;;;;5115398;28;20057;-62
2022/11/23 03:24:39;;;;;;;8.35;2.53;;;5.30;99.90;;;;;;5133116;27;20069;-62
2022/11/23 03:27:10;;;;;;;8.75;2.40;;;5.30;99.90;;;;;;5115559;28;20137;-63
2022/11/23 03:29:38;;;;;;;6.30;2.13;;;5.30;99.90;;;;;;5115221;28;20046;-62
2022/11/23 03:32:11;;;;;;;4.35;2.40;;;5.20;99.90;;;;;;5115691;28;20118;-65
2022/11/23 03:34:41;;;;;;;7.22;2.35;;;5.20;99.90;;;;;;5115045;28;20050;-61
2022/11/23 03:37:07;;;;;;;8.60;2.80;;;5.20;99.90;;;;;;5113857;28;20058;-62
2022/11/23 03:39:35;;;;;;;11.23;2.97;;;5.20;99.90;;;;;;5115291;28;20039;-61
2022/11/23 03:42:25;;;;;;;8.00;2.47;;;5.20;99.90;;;;;;5111952;28;20051;-62
2022/11/23 03:44:52;;;;;;;7.60;2.70;;;5.20;99.90;;;;;;5100976;28;20058;-61
2022/11/23 03:47:18;;;;;;;11.95;2.83;;;5.20;99.90;;;;;;5109309;28;20497;-62
2022/11/23 03:49:45;;;;;;;6.20;2.30;;;5.20;99.90;;;;;;5113314;28;20489;-61
2022/11/23 03:52:12;;;;;;;8.27;3.35;;;5.20;99.90;;;;;;5134332;28;20039;-63
2022/11/23 03:54:42;;;;;;;8.05;2.67;;;5.20;99.90;;;;;;5114515;28;20528;-62
2022/11/23 03:57:11;;;;;;;9.52;3.22;;;5.20;99.90;;;;;;5134438;28;20031;-61
2022/11/23 03:59:37;;;;;;;9.70;2.70;;;5.20;99.90;;;;;;5133727;28;20046;-63
2022/11/23 04:02:06;;;;;;;7.05;2.78;;;5.20;99.90;;;;;;5114509;28;20069;-63
2022/11/23 04:04:40;;;;;;;9.15;2.97;;;5.20;99.90;;;;;;5113726;28;20039;-61
2022/11/23 04:07:11;;;;;;;6.40;3.03;;;5.10;99.90;;;;;;5114533;28;20057;-62
2022/11/23 04:09:43;;;;;;;8.45;3.15;;;5.10;99.90;;;;;;5114805;28;20039;-62
2022/11/23 04:12:36;;;;;;;8.45;3.00;;;5.10;99.90;;;;;;5082340;28;20470;-62
2022/11/23 04:15:06;;;;;;;8.30;2.60;;;5.10;99.90;;;;;;5095918;28;20048;-62
2022/11/23 04:17:33;;;;;;;7.22;2.45;;;5.10;99.90;;;;;;5114201;28;20043;-63
2022/11/23 04:20:00;;;;;;;9.27;2.60;;;5.10;99.90;;;;;;5097630;28;20035;-61
2022/11/23 04:22:27;;;;;;;9.35;2.50;;;5.10;99.90;;;;;;5114677;28;20043;-62
2022/11/23 04:24:54;;;;;;;9.95;2.45;;;5.10;99.90;;;;;;5109861;28;20044;-65
2022/11/23 04:27:21;;;;;;;12.13;2.55;;;5.20;99.90;;;;;;5114749;28;20043;-62
2022/11/23 04:29:48;;;;;;;7.30;2.50;;;5.20;99.90;;;;;;5114478;28;20459;-63
2022/11/23 04:32:16;;;;;;;9.80;2.40;;;5.30;99.90;;;;;;5113623;28;20455;-62
2022/11/23 04:34:43;;;;;;;8.02;2.10;;;5.30;99.90;;;;;;5113851;28;20482;-63
2022/11/23 04:37:11;;;;;;;7.78;2.63;;;5.30;99.90;;;;;;5117285;27;20047;-63
2022/11/23 04:39:41;;;;;;;7.15;2.22;;;5.30;99.90;;;;;;5118428;27;20031;-61
2022/11/23 04:42:19;;;;;;;9.10;2.50;;;5.30;99.90;;;;;;5119701;27;20051;-62
2022/11/23 04:44:51;;;;;;;8.07;2.28;;;5.30;99.90;;;;;;5118907;27;20375;-63
2022/11/23 04:47:18;;;;;;;7.07;2.60;;;5.30;99.90;;;;;;5117197;27;20127;-63
2022/11/23 04:49:46;;;;;;;6.25;2.05;;;5.30;99.90;;;;;;5118306;27;20085;-61
2022/11/23 04:52:14;;;;;;;7.78;2.40;;;5.30;99.90;;;;;;5117865;27;20542;-62
2022/11/23 04:54:44;;;;;;;6.95;2.38;;;5.30;99.90;;;;;;5116573;27;20130;-64
2022/11/23 04:57:11;;;;;;;6.18;2.17;;;5.20;99.90;;;;;;5110757;28;20036;-63
2022/11/23 04:59:39;;;;;;;8.57;2.20;;;5.20;99.90;;;;;;5114886;27;20430;-63
2022/11/23 05:02:06;;;;;;;12.85;2.53;;;5.20;99.90;;;;;;5114639;27;20465;-62
2022/11/23 05:04:45;;;;;;;6.47;2.13;;;5.20;99.90;;;;;;5116277;27;20389;-62
2022/11/23 05:07:14;;;;;;;7.15;2.58;;;5.20;99.90;;;;;;5115891;27;20648;-62
2022/11/23 05:09:44;;;;;;;8.48;2.30;;;5.20;99.90;;;;;;5114851;27;20039;-63
2022/11/23 05:12:15;;;;;;;9.05;2.35;;;5.20;99.90;;;;;;5116938;27;20043;-63
2022/11/23 05:14:43;;;;;;;11.55;2.40;;;5.20;99.90;;;;;;5136465;27;20445;-62
2022/11/23 05:17:12;;;;;;;9.63;3.00;;;5.20;99.90;;;;;;5115926;27;20035;-62
2022/11/23 05:19:40;;;;;;;9.45;2.28;;;5.30;99.90;;;;;;5115731;27;20082;-63
2022/11/23 05:22:07;;;;;;;9.52;2.65;;;5.20;99.90;;;;;;5118404;27;20039;-62
2022/11/23 05:24:35;;;;;;;9.40;2.40;;;5.30;99.90;;;;;;5115810;27;20039;-62
2022/11/23 05:27:09;;;;;;;10.23;2.40;;;5.30;99.90;;;;;;5118466;27;20039;-61
2022/11/23 05:29:37;;;;;;;8.65;2.28;;;5.30;99.90;;;;;;5116782;27;20050;-64
2022/11/23 05:32:05;;;;;;;9.30;2.60;;;5.30;99.90;;;;;;5115629;27;20051;-63
2022/11/23 05:34:31;;;;;;;11.93;2.35;;;5.30;99.90;;;;;;5116804;27;20045;-62
2022/11/23 05:37:00;;;;;;;15.80;2.60;;;5.30;99.90;;;;;;5117206;27;20092;-63
2022/11/23 05:39:27;;;;;;;11.05;2.40;;;5.40;99.90;;;;;;5116917;27;20489;-64
2022/11/23 05:41:56;;;;;;;10.20;2.60;;;5.30;99.90;;;;;;5116692;27;20551;-64
2022/11/23 05:44:34;;;;;;;8.48;2.28;;;5.40;99.90;;;;;;5116341;27;20050;-64
2022/11/23 05:47:02;;;;;;;10.73;2.53;;;5.40;99.90;;;;;;5116116;27;20043;-63
2022/11/23 05:49:31;;;;;;;13.43;2.45;;;5.40;99.90;;;;;;5117555;27;20045;-64
2022/11/23 05:52:00;;;;;;;13.73;3.03;;;5.40;99.90;;;;;;5117307;27;20039;-63
2022/11/23 05:54:28;;;;;;;12.40;2.40;;;5.40;99.90;;;;;;5098497;27;20046;-64
2022/11/23 05:57:08;;;;;;;9.98;2.25;;;5.40;99.90;;;;;;5115993;27;20043;-63
2022/11/23 05:59:37;;;;;;;19.45;2.60;;;5.50;99.90;;;;;;5115853;27;20050;-60
2022/11/23 06:02:06;;;;;;;16.50;2.95;;;5.60;99.90;;;;;;5114594;27;20035;-63
2022/11/23 06:04:34;;;;;;;21.80;3.00;;;5.70;99.90;;;;;;5133002;27;20481;-65
2022/11/23 06:07:01;;;;;;;18.60;3.20;;;5.70;99.90;;;;;;5133773;27;20031;-65
2022/11/23 06:09:37;;;;;;;15.43;2.25;;;5.80;99.90;;;;;;5115399;27;20433;-63
2022/11/23 06:12:07;;;;;;;17.13;3.65;;;5.80;99.90;;;;;;5116160;27;20043;-64
2022/11/23 06:14:34;;;;;;;15.75;2.88;;;5.90;99.90;;;;;;5117408;27;20104;-63
2022/11/23 06:17:01;;;;;;;18.27;3.20;;;6.00;99.90;;;;;;5117244;27;20474;-65
2022/11/23 06:19:36;;;;;;;19.98;3.65;;;6.10;99.90;;;;;;5112220;27;20122;-63
2022/11/23 06:22:04;;;;;;;17.60;2.75;;;6.10;99.90;;;;;;5115310;27;20054;-64
2022/11/23 06:24:35;;;;;;;11.77;2.50;;;6.10;99.90;;;;;;5117302;27;20035;-64
2022/11/23 06:27:31;;;;;;;15.95;3.20;;;6.20;99.90;;;;;;5114515;27;20385;-63
2022/11/23 06:30:01;;;;;;;17.48;2.70;;;6.20;99.90;;;;;;5114992;27;20046;-63
2022/11/23 06:32:30;;;;;;;20.00;2.90;;;6.30;99.90;;;;;;5099518;27;20069;-66
2022/11/23 06:34:58;;;;;;;19.23;2.63;;;6.40;99.90;;;;;;5116891;27;20043;-63
2022/11/23 06:37:30;;;;;;;15.82;2.38;;;6.50;99.90;;;;;;5116311;27;20529;-63
2022/11/23 06:39:57;;;;;;;16.40;2.63;;;6.60;99.90;;;;;;5116947;27;20039;-64
2022/11/23 06:42:24;;;;;;;14.65;3.10;;;6.70;99.90;;;;;;5132756;27;20035;-63
2022/11/23 06:45:21;;;;;;;;;;;6.80;99.90;;;;;;5115783;27;20047;-65
2022/11/23 06:47:51;;;;;;;14.20;2.40;;;6.90;99.90;;;;;;5133943;27;19923;-64
2022/11/23 06:50:18;;;;;;;10.23;2.20;;;7.00;99.90;;;;;;5116286;27;20555;-65
2022/11/23 06:52:46;;;;;;;14.13;2.75;;;7.00;99.90;;;;;;5113489;27;20067;-64
2022/11/23 06:55:13;;;;;;;13.02;2.45;;;7.10;99.90;;;;;;5116784;27;20420;-65
2022/11/23 06:57:40;;;;;;;9.52;2.28;;;7.10;99.90;;;;;;5114916;27;20059;-64
2022/11/23 07:00:10;;;;;;;17.58;2.70;;;7.20;99.90;;;;;;5115538;27;20039;-65
2022/11/23 07:02:41;;;;;;;15.27;2.80;;;7.20;99.90;;;;;;5095767;27;20390;-63
2022/11/23 07:05:08;;;;;;;16.20;2.40;;;7.30;99.90;;;;;;5135004;27;20099;-66
2022/11/23 07:07:39;;;;;;;19.10;3.47;;;7.30;99.90;;;;;;5114242;27;20055;-64
2022/11/23 07:10:17;;;;;;;12.52;2.05;;;7.30;99.90;;;;;;5122528;27;20117;-64
2022/11/23 07:12:47;;;;;;;13.45;2.45;;;7.30;99.90;;;;;;5095472;28;20097;-65
2022/11/23 07:15:18;;;;;;;11.88;2.33;;;7.40;99.90;;;;;;5109672;27;20121;-64
2022/11/23 07:17:45;;;;;;;13.35;2.10;;;7.40;99.90;;;;;;5115216;27;20050;-65
2022/11/23 07:20:12;;;;;;;7.78;2.22;;;7.40;99.90;;;;;;5111367;27;20397;-63
2022/11/23 07:22:39;;;;;;;13.90;2.47;;;7.50;99.90;;;;;;5115542;28;20066;-63
2022/11/23 07:25:06;;;;;;;16.90;3.03;;;7.50;99.90;;;;;;5117191;28;20045;-63
2022/11/23 07:27:33;;;;;;;12.82;2.28;;;7.50;99.90;;;;;;5129396;27;20639;-63
2022/11/23 07:30:01;;;;;;;13.52;2.97;;;7.60;99.90;;;;;;5100039;28;20043;-64
2022/11/23 07:32:28;;;;;;;14.77;2.50;;;7.70;99.90;;;;;;5113053;28;20051;-63
2022/11/23 07:34:55;;;;;;;13.93;2.45;;;7.80;99.90;;;;;;5115069;28;20171;-65
2022/11/23 07:37:22;;;;;;;11.32;2.10;;;7.90;99.90;;;;;;5112893;28;20040;-65
2022/11/23 07:39:51;;;;;;;17.02;2.75;;;7.90;99.90;;;;;;5107906;28;20039;-64
2022/11/23 07:42:25;;;;;;;9.88;2.10;;;8.00;99.90;;;;;;5112681;28;20446;-65
2022/11/23 07:45:09;;;;;;;12.80;2.55;;;8.10;99.90;;;;;;5123678;28;20037;-66
2022/11/23 07:47:38;;;;;;;11.80;2.33;;;8.20;99.90;;;;;;5113986;28;20111;-63
2022/11/23 07:50:05;;;;;;;15.30;2.65;;;8.20;99.90;;;;;;5134206;28;20088;-64
2022/11/23 07:52:34;;;;;;;9.93;2.05;;;8.20;99.90;;;;;;5132354;28;20032;-63
2022/11/23 07:55:00;;;;;;;9.70;1.92;;;8.30;99.90;;;;;;5132525;27;20042;-62
2022/11/23 07:57:27;;;;;;;7.97;1.80;;;8.30;99.90;;;;;;5116124;28;20423;-63
2022/11/23 07:59:54;;;;;;;8.75;1.60;;;8.40;99.90;;;;;;5129328;28;20114;-64
2022/11/23 08:02:21;;;;;;;7.47;1.60;;;8.40;99.90;;;;;;5128603;28;20124;-64
2022/11/23 08:04:47;;;;;;;4.93;1.60;;;8.40;99.90;;;;;;5128183;28;20117;-64
2022/11/23 08:07:14;;;;;;;6.50;1.52;;;8.50;99.90;;;;;;5129424;28;20505;-65
2022/11/23 08:09:41;;;;;;;4.05;1.00;;;8.50;99.90;;;;;;5132423;27;20070;-65
2022/11/23 08:12:08;;;;;;;5.07;1.02;;;8.50;99.90;;;;;;5138130;27;20039;-65
2022/11/23 08:14:35;;;;;;;6.65;1.02;;;8.50;99.90;;;;;;5133991;27;20098;-65
2022/11/23 08:17:02;;;;;;;3.55;0.98;;;8.60;99.90;;;;;;5117882;27;20470;-65
2022/11/23 08:19:30;;;;;;;4.20;0.85;;;8.60;99.90;;;;;;5138496;27;20047;-65
2022/11/23 08:21:57;;;;;;;19.00;11.10;;;8.70;99.90;;;;;;5132043;27;20032;-65
2022/11/23 08:24:26;;;;;;;66.75;49.35;;;8.80;99.90;;;;;;5117128;27;20055;-65
2022/11/23 08:26:53;;;;;;;4.78;3.33;;;8.90;99.90;;;;;;5102455;27;20067;-62
2022/11/23 08:29:20;;;;;;;3.28;1.50;;;8.90;99.90;;;;;;5132243;27;20039;-65
2022/11/23 08:31:46;;;;;;;6.75;1.17;;;8.90;99.90;;;;;;5132975;27;20031;-65
2022/11/23 08:34:13;;;;;;;3.10;1.08;;;9.00;99.90;;;;;;5136617;27;20470;-65
2022/11/23 08:36:40;;;;;;;2.72;1.20;;;9.00;99.90;;;;;;5133009;27;20163;-62
2022/11/23 08:39:09;;;;;;;3.97;1.48;;;9.00;99.90;;;;;;5135568;27;20043;-63
2022/11/23 08:41:37;;;;;;;3.38;1.15;;;9.10;99.90;;;;;;5128921;27;20087;-62
2022/11/23 08:44:04;;;;;;;3.35;1.00;;;9.10;99.90;;;;;;5114022;28;20375;-62
2022/11/23 08:46:30;;;;;;;3.17;0.80;;;9.10;99.90;;;;;;5129852;27;20035;-62
2022/11/23 08:48:57;;;;;;;2.03;0.82;;;9.20;99.90;;;;;;5135347;27;20149;-65
2022/11/23 08:51:25;;;;;;;4.47;1.13;;;9.20;99.90;;;;;;5097186;27;20053;-63
2022/11/23 08:53:52;;;;;;;3.92;1.05;;;9.20;99.90;;;;;;5135726;27;20043;-61
2022/11/23 08:56:19;;;;;;;12.25;9.10;;;9.30;99.90;;;;;;5135026;27;20122;-62
2022/11/23 08:58:45;;;;;;;4.95;2.58;;;9.30;99.90;;;;;;5133994;27;20040;-62
2022/11/23 09:01:12;;;;;;;5.82;1.60;;;9.30;99.90;;;;;;5128948;27;20074;-64
2022/11/23 09:03:39;;;;;;;3.97;1.08;;;9.40;99.90;;;;;;5134152;27;20039;-63
2022/11/23 09:06:06;;;;;;;4.38;1.02;;;9.40;99.90;;;;;;5128160;27;20118;-66
2022/11/23 09:08:32;;;;;;;2.45;1.08;;;9.40;99.90;;;;;;5133733;27;20051;-62
2022/11/23 09:10:59;;;;;;;2.63;0.90;;;9.40;99.90;;;;;;5133719;27;20059;-66
2022/11/23 09:13:26;;;;;;;7.63;0.93;;;9.40;99.90;;;;;;5134194;27;20047;-64
2022/11/23 09:15:53;;;;;;;3.55;0.90;;;9.40;99.90;;;;;;5133745;27;20070;-65
2022/11/23 09:18:20;;;;;;;3.22;1.00;;;9.50;99.90;;;;;;5118817;27;20031;-65
2022/11/23 09:20:46;;;;;;;2.20;0.90;;;9.50;99.90;;;;;;5131840;27;20454;-64
2022/11/23 09:23:13;;;;;;;1.45;0.68;;;9.50;99.90;;;;;;5114049;27;20050;-63
2022/11/23 09:25:41;;;;;;;1.85;0.50;;;9.50;99.90;;;;;;5129195;27;20092;-65
2022/11/23 09:28:11;;;;;;;2.80;0.52;;;9.60;99.90;;;;;;5129186;27;20385;-65
2022/11/23 09:30:38;;;;;;;1.95;0.52;;;9.60;99.90;;;;;;5131762;27;20035;-65
2022/11/23 09:33:04;;;;;;;1.73;0.45;;;9.70;99.90;;;;;;5135349;27;20046;-67
2022/11/23 09:35:31;;;;;;;2.88;0.60;;;9.70;99.90;;;;;;5133987;27;20071;-64
2022/11/23 09:37:58;;;;;;;3.97;0.88;;;9.70;99.90;;;;;;5135514;27;20055;-66
2022/11/23 09:40:24;;;;;;;4.97;0.90;;;9.80;99.90;;;;;;5134304;27;20046;-66
2022/11/23 09:42:51;;;;;;;4.90;1.30;;;9.80;99.90;;;;;;5133751;27;20050;-66
2022/11/23 09:45:18;;;;;;;4.95;1.20;;;9.80;99.90;;;;;;5133639;27;20071;-67
2022/11/23 09:47:45;;;;;;;4.35;0.93;;;9.90;99.90;;;;;;5133824;27;20092;-65
2022/11/23 09:50:11;;;;;;;6.53;1.13;;;9.90;99.90;;;;;;5133018;27;20543;-64
2022/11/23 09:52:38;;;;;;;6.68;1.30;;;9.90;99.90;;;;;;5133286;27;20504;-66
2022/11/23 09:55:05;;;;;;;4.35;1.02;;;9.90;99.90;;;;;;5133766;27;20035;-65
2022/11/23 09:57:32;;;;;;;7.97;2.08;;;10.00;99.90;;;;;;5115677;27;20039;-66
2022/11/23 09:59:58;;;;;;;4.97;1.17;;;9.90;99.90;;;;;;5134708;27;20118;-65
2022/11/23 10:02:27;;;;;;;6.68;0.98;;;10.00;99.90;;;;;;5130903;27;20401;-64
2022/11/23 10:04:54;;;;;;;9.27;1.60;;;10.00;99.90;;;;;;5132928;27;20035;-63
2022/11/23 10:07:24;;;;;;;8.70;1.48;;;10.00;99.90;;;;;;5130135;27;20058;-65
2022/11/23 10:09:51;;;;;;;6.78;1.70;;;10.00;99.90;;;;;;5133361;27;20039;-64
2022/11/23 10:12:17;;;;;;;9.80;1.52;;;10.00;99.90;;;;;;5133185;27;20043;-64
2022/11/23 10:14:44;;;;;;;8.65;1.42;;;10.00;99.90;;;;;;5134388;27;20038;-66
2022/11/23 10:17:11;;;;;;;11.57;1.70;;;10.00;99.90;;;;;;5132655;27;20134;-62
2022/11/23 10:19:37;;;;;;;7.55;1.52;;;10.00;99.90;;;;;;5131462;27;20042;-64
2022/11/23 10:22:05;;;;;;;7.18;1.83;;;10.00;99.90;;;;;;5131739;27;20031;-65
2022/11/23 10:24:32;;;;;;;7.25;1.58;;;9.90;99.90;;;;;;5126318;27;20043;-64
2022/11/23 10:26:59;;;;;;;8.95;1.65;;;10.00;99.90;;;;;;5129454;27;20574;-62
2022/11/23 10:29:26;;;;;;;8.77;1.58;;;10.00;99.90;;;;;;5132603;27;20096;-64
2022/11/23 10:31:52;;;;;;;6.13;1.10;;;10.00;99.90;;;;;;5132251;27;20114;-63
2022/11/23 10:34:23;;;;;;;6.75;1.10;;;10.00;99.90;;;;;;5128701;27;20126;-63
2022/11/23 10:36:49;;;;;;;8.40;1.80;;;10.00;99.90;;;;;;5133461;27;20035;-65
2022/11/23 10:39:16;;;;;;;7.82;1.60;;;9.90;99.90;;;;;;5131519;27;20047;-64
2022/11/23 10:41:43;;;;;;;7.63;1.85;;;10.00;99.90;;;;;;5131428;27;20043;-63
2022/11/23 10:44:09;;;;;;;8.75;1.52;;;10.00;99.90;;;;;;5128406;27;20055;-69
2022/11/23 10:46:36;;;;;;;9.07;1.70;;;10.00;99.90;;;;;;5132378;27;20074;-63
2022/11/23 10:49:03;;;;;;;26.70;2.38;;;10.00;99.90;;;;;;5128560;27;20105;-65
2022/11/23 10:51:30;;;;;;;9.82;1.40;;;10.00;99.90;;;;;;5129243;27;20519;-64
2022/11/23 10:53:56;;;;;;;6.95;1.27;;;10.00;99.90;;;;;;5130517;27;20095;-64
2022/11/23 10:56:30;;;;;;;9.30;1.48;;;10.10;99.90;;;;;;5132725;27;20047;-64
2022/11/23 10:58:57;;;;;;;8.32;1.73;;;10.10;99.90;;;;;;5111606;27;20035;-63
2022/11/23 11:01:24;;;;;;;9.68;1.83;;;10.10;99.90;;;;;;5125634;27;20035;-63
2022/11/23 11:03:51;;;;;;;10.77;1.75;;;10.20;99.90;;;;;;5128887;27;20035;-63
2022/11/23 11:06:21;;;;;;;9.13;1.92;;;10.20;99.90;;;;;;5126709;27;20100;-63
2022/11/23 11:08:47;;;;;;;9.95;1.52;;;10.20;99.90;;;;;;5132557;27;20055;-64
2022/11/23 11:11:14;;;;;;;7.10;1.80;;;10.20;99.90;;;;;;5129890;27;20084;-66
2022/11/23 11:13:41;;;;;;;9.60;1.90;;;10.20;99.90;;;;;;5127310;27;20082;-64
2022/11/23 11:16:07;;;;;;;9.30;1.60;;;10.30;99.90;;;;;;5129623;27;20043;-63
2022/11/23 11:18:34;;;;;;;7.43;1.77;;;10.30;99.90;;;;;;5128852;27;20042;-64
2022/11/23 11:21:01;;;;;;;8.43;1.70;;;10.30;99.90;;;;;;5103119;28;20143;-64
2022/11/23 11:23:28;;;;;;;8.23;2.03;;;10.40;99.90;;;;;;5127469;27;20088;-65
2022/11/23 11:25:54;;;;;;;7.22;1.67;;;10.40;99.90;;;;;;5123119;27;20103;-64
2022/11/23 11:28:21;;;;;;;15.43;2.05;;;10.50;99.90;;;;;;5113009;28;20046;-65
2022/11/23 11:30:48;;;;;;;9.48;1.80;;;10.50;99.90;;;;;;5130721;28;20039;-64
2022/11/23 11:33:15;;;;;;;8.55;1.60;;;10.50;99.90;;;;;;5130512;28;20031;-64
2022/11/23 11:35:41;;;;;;;9.98;2.00;;;10.60;99.90;;;;;;5128807;27;20109;-66
2022/11/23 11:38:08;;;;;;;13.10;2.25;;;10.60;99.90;;;;;;5129060;28;20526;-63
2022/11/23 11:40:35;;;;;;;10.18;2.28;;;10.50;99.90;;;;;;5123411;28;20031;-64
2022/11/23 11:43:02;;;;;;;12.23;2.53;;;10.50;99.90;;;;;;5129360;28;20035;-63
2022/11/23 11:45:29;;;;;;;10.10;2.30;;;10.50;99.90;;;;;;5130402;27;20031;-64
2022/11/23 11:47:55;;;;;;;12.00;2.40;;;10.40;99.90;;;;;;5132584;27;20468;-65
2022/11/23 11:50:23;;;;;;;12.27;2.42;;;10.40;99.90;;;;;;5135322;27;20367;-65
2022/11/23 11:52:57;;;;;;;12.60;2.40;;;10.40;99.90;;;;;;5132591;27;20125;-65
2022/11/23 11:55:23;;;;;;;11.32;2.53;;;10.40;99.90;;;;;;5117485;27;20050;-64
2022/11/23 11:57:50;;;;;;;9.10;1.88;;;10.40;99.90;;;;;;5132657;27;20050;-66
2022/11/23 12:00:17;;;;;;;11.23;2.30;;;10.40;99.90;;;;;;5129964;27;20513;-65
2022/11/23 12:02:44;;;;;;;13.77;2.53;;;10.40;99.90;;;;;;5135909;27;20047;-65
2022/11/23 12:05:11;;;;;;;12.68;2.60;;;10.30;99.90;;;;;;5137294;27;20039;-63
2022/11/23 12:07:38;;;;;;;10.35;2.65;;;10.40;99.90;;;;;;5137102;27;20550;-66
2022/11/23 12:10:05;;;;;;;13.90;2.55;;;10.30;99.90;;;;;;5116165;27;20114;-65
2022/11/23 12:12:32;;;;;;;10.40;2.03;;;10.40;99.90;;;;;;5136708;27;20039;-64
2022/11/23 12:14:59;;;;;;;16.00;2.58;;;10.40;99.90;;;;;;5136172;27;20106;-63
2022/11/23 12:17:25;;;;;;;17.95;3.15;;;10.40;99.90;;;;;;5136208;27;20031;-66
2022/11/23 12:19:58;;;;;;;14.77;2.85;;;10.40;99.90;;;;;;5134903;27;20035;-64
2022/11/23 12:22:25;;;;;;;15.30;2.78;;;10.30;99.90;;;;;;5136188;27;20118;-65
2022/11/23 12:24:52;;;;;;;13.23;2.72;;;10.40;99.90;;;;;;5135964;27;20043;-65
2022/11/23 12:27:19;;;;;;;14.88;2.63;;;10.40;99.90;;;;;;5136093;27;20047;-64
2022/11/23 12:29:45;;;;;;;16.73;3.30;;;10.40;99.90;;;;;;5136965;27;20096;-64
2022/11/23 12:32:12;;;;;;;20.50;3.10;;;10.40;99.90;;;;;;5133490;27;20049;-65
2022/11/23 12:34:39;;;;;;;15.60;3.38;;;10.40;99.90;;;;;;5137005;27;20421;-64
2022/11/23 12:37:06;;;;;;;15.80;3.03;;;10.40;99.90;;;;;;5137036;27;20045;-66
2022/11/23 12:39:33;;;;;;;19.70;4.38;;;10.40;99.90;;;;;;5133897;27;20045;-65
2022/11/23 12:41:59;;;;;;;15.88;3.63;;;10.40;99.90;;;;;;5132316;27;20040;-64
2022/11/23 12:44:26;;;;;;;27.63;5.57;;;10.40;99.90;;;;;;5136850;27;20482;-64
2022/11/23 12:46:53;;;;;;;12.85;3.22;;;10.40;99.90;;;;;;5135002;27;20470;-65
2022/11/23 12:49:20;;;;;;;18.55;3.58;;;10.40;99.90;;;;;;5131725;27;20047;-65
2022/11/23 12:51:46;;;;;;;17.90;3.85;;;10.40;99.90;;;;;;5132353;27;20061;-64
2022/11/23 12:54:13;;;;;;;19.90;3.40;;;10.40;99.90;;;;;;5136916;27;20087;-63